Disclaimer

Please do not use the information listed here in-flight or in-navigation, as they are not provided to us by the airports but are provided by volunteers, so they might be outdated.

Search


Regions


Airport information page

Radio informations:
Tower (TWR) - 118.25 MHz
NEIVA RDO - 3488 MHz
NEIVA FIS - 127.1 MHz

Airport informations:
Latitude: 02° 57' 00.54" N
Longitude: 075° 17' 38.40" W
Elevation: 1464 feet - 446 meters
Operating hours: Remarks
Operating agency: Civil government, landing fees and diplomatic clearance may be required
Timezone: UTC-5
Fuel: 100/130 MIL Spec, low lead, aviation gasoline (BLUE)

Runway information:
02/20 - 5880 x 131 feet< - >1792 x 40 meters

Recent METARs:
SKNV 192300Z 20005KT 9999 FEW045 BKN110 30/19 A2977
SKNV 192300Z 20005KT 9999 FEW045 BKN110 30/19 A2977
SKNV 200000Z 20005KT 9999 FEW040 BKN110 29/20 A2979

Airport on the map: